Time;durP1;ratioP1;P1;durP2;ratioP2;P2;SDS_P1;SDS_P2;PMS_P1;PMS_P2;Temp;Humidity;BMP_temperature;BMP_pressure;BME280_temperature;BME280_humidity;BME280_pressure;Samples;Min_cycle;Max_cycle;Signal;HPM_P1;HPM_P2
2023/02/15 00:01:59;;;;;;;70.43;41.47;;;11.30;1.00;;;;;;5030978;28;20029;-57
2023/02/15 00:04:45;;;;;;;67.50;41.97;;;11.30;1.00;;;;;;5033977;28;20525;-56
2023/02/15 00:07:11;;;;;;;66.13;41.38;;;11.30;1.00;;;;;;5034897;28;20037;-55
2023/02/15 00:09:37;;;;;;;63.95;39.10;;;11.30;1.00;;;;;;5035467;28;20052;-57
2023/02/15 00:12:02;;;;;;;67.43;41.35;;;11.30;1.00;;;;;;5034672;28;20084;-54
2023/02/15 00:14:28;;;;;;;64.18;40.00;;;11.30;1.00;;;;;;5035321;28;20308;-57
2023/02/15 00:16:54;;;;;;;71.18;41.20;;;11.30;1.00;;;;;;5027273;28;20026;-57
2023/02/15 00:19:21;;;;;;;72.22;41.67;;;11.30;1.00;;;;;;5031743;28;20112;-57
2023/02/15 00:21:48;;;;;;;62.90;40.20;;;11.30;1.00;;;;;;5033803;28;20024;-56
2023/02/15 00:24:16;;;;;;;70.57;42.38;;;11.30;1.00;;;;;;5034541;28;20022;-53
2023/02/15 00:26:43;;;;;;;70.38;42.55;;;11.30;1.00;;;;;;5034905;28;20183;-56
2023/02/15 00:29:10;;;;;;;65.32;41.33;;;11.30;1.00;;;;;;5035126;28;20025;-56
2023/02/15 00:31:37;;;;;;;67.73;42.30;;;11.30;1.00;;;;;;5034077;28;20025;-55
2023/02/15 00:34:07;;;;;;;70.40;43.17;;;11.20;1.00;;;;;;5035150;28;20040;-55
2023/02/15 00:36:43;;;;;;;70.70;44.03;;;11.20;1.00;;;;;;5034544;28;20026;-56
2023/02/15 00:39:10;;;;;;;67.15;42.65;;;11.20;1.00;;;;;;5033468;28;20164;-56
2023/02/15 00:41:36;;;;;;;67.15;41.28;;;11.20;1.00;;;;;;5033223;28;20162;-56
2023/02/15 00:44:02;;;;;;;67.50;41.80;;;11.20;1.00;;;;;;5034116;28;20105;-55
2023/02/15 00:46:28;;;;;;;68.50;43.38;;;11.10;1.00;;;;;;5032828;28;20034;-55
2023/02/15 00:48:53;;;;;;;67.68;42.15;;;11.20;1.00;;;;;;5034543;28;20435;-53
2023/02/15 00:51:20;;;;;;;67.20;42.53;;;11.20;1.00;;;;;;5032875;28;20128;-55
2023/02/15 00:53:46;;;;;;;70.40;43.03;;;11.20;1.00;;;;;;5034354;28;20041;-56
2023/02/15 00:56:12;;;;;;;62.33;40.28;;;11.10;1.00;;;;;;5033888;28;20120;-52
2023/02/15 00:58:46;;;;;;;66.82;41.50;;;11.10;1.00;;;;;;5034344;28;20116;-54
2023/02/15 01:01:15;;;;;;;67.35;42.03;;;11.10;1.00;;;;;;5033527;28;20578;-56
2023/02/15 01:03:43;;;;;;;70.75;41.85;;;11.00;1.00;;;;;;5034110;28;20041;-55
2023/02/15 01:06:10;;;;;;;65.47;40.30;;;11.10;1.00;;;;;;5033809;28;20128;-55
2023/02/15 01:08:36;;;;;;;64.63;39.80;;;11.00;1.00;;;;;;5033797;28;20427;-53
2023/02/15 01:11:08;;;;;;;62.90;40.63;;;11.00;1.00;;;;;;5032964;28;20107;-54
2023/02/15 01:13:34;;;;;;;62.70;39.58;;;11.10;1.00;;;;;;5031897;28;20096;-53
2023/02/15 01:16:02;;;;;;;64.57;41.67;;;11.00;1.00;;;;;;5033837;28;20387;-55
2023/02/15 01:18:29;;;;;;;68.83;41.83;;;11.00;1.00;;;;;;5033686;28;20479;-52
2023/02/15 01:20:55;;;;;;;67.43;41.10;;;10.90;1.00;;;;;;5033755;28;20040;-51
2023/02/15 01:23:21;;;;;;;69.20;41.65;;;10.90;1.00;;;;;;5033276;28;20483;-55
2023/02/15 01:25:47;;;;;;;64.07;38.90;;;10.90;1.00;;;;;;5033419;28;20029;-55
2023/02/15 01:28:12;;;;;;;67.72;41.83;;;11.00;1.00;;;;;;5032583;28;20029;-56
2023/02/15 01:30:38;;;;;;;64.80;41.67;;;10.90;1.00;;;;;;5033660;28;20529;-53
2023/02/15 01:33:03;;;;;;;66.30;39.87;;;11.00;1.00;;;;;;5032816;28;20495;-56
2023/02/15 01:35:29;;;;;;;66.72;40.10;;;10.90;1.00;;;;;;5034002;28;20045;-56
2023/02/15 01:37:56;;;;;;;64.67;38.93;;;10.90;1.00;;;;;;5033651;28;20025;-54
2023/02/15 01:40:23;;;;;;;62.70;41.83;;;10.90;1.00;;;;;;5033506;28;20028;-54
2023/02/15 01:42:53;;;;;;;66.25;41.22;;;10.90;1.00;;;;;;5033608;28;20029;-56
2023/02/15 01:45:25;;;;;;;64.90;40.60;;;10.90;1.00;;;;;;5033812;28;20066;-54
2023/02/15 01:48:05;;;;;;;71.85;42.33;;;10.80;1.00;;;;;;5033004;28;20034;-55
2023/02/15 01:50:33;;;;;;;66.03;41.83;;;10.80;1.00;;;;;;5033303;28;20037;-53
2023/02/15 01:53:15;;;;;;;64.57;41.47;;;10.80;1.00;;;;;;5033415;28;20107;-55
2023/02/15 01:56:01;;;;;;;63.77;41.90;;;10.80;1.00;;;;;;5032969;28;20510;-54
2023/02/15 01:58:28;;;;;;;60.07;39.53;;;10.70;1.00;;;;;;5032992;28;20310;-54
2023/02/15 02:00:58;;;;;;;67.90;43.37;;;10.80;1.00;;;;;;5032974;28;20479;-53
2023/02/15 02:04:06;;;;;;;61.30;41.37;;;10.70;1.00;;;;;;5032870;28;20025;-55
2023/02/15 02:06:34;;;;;;;67.30;42.40;;;10.70;1.00;;;;;;5026986;28;20154;-53
2023/02/15 02:09:00;;;;;;;66.77;41.20;;;10.70;1.00;;;;;;5031491;28;20017;-55
2023/02/15 02:11:26;;;;;;;63.87;40.20;;;10.70;1.00;;;;;;5032520;28;20340;-53
2023/02/15 02:13:55;;;;;;;66.13;41.87;;;10.60;1.00;;;;;;5032507;28;20116;-51
2023/02/15 02:16:53;;;;;;;69.17;42.90;;;10.60;1.00;;;;;;5019817;28;20043;-55
2023/02/15 02:19:37;;;;;;;65.13;41.33;;;10.60;1.00;;;;;;5019161;28;20032;-56
2023/02/15 02:22:21;;;;;;;66.47;43.60;;;10.50;1.00;;;;;;5032421;28;20064;-55
2023/02/15 02:25:11;;;;;;;67.00;43.80;;;10.50;1.00;;;;;;5018126;28;20021;-50
2023/02/15 02:27:50;;;;;;;66.47;42.63;;;10.50;1.00;;;;;;5031256;28;20097;-54
2023/02/15 02:30:34;;;;;;;68.07;43.27;;;10.50;1.00;;;;;;5032547;28;20109;-52
2023/02/15 02:33:15;;;;;;;64.23;43.47;;;10.50;1.00;;;;;;5029579;28;20042;-53
2023/02/15 02:35:57;;;;;;;67.47;43.20;;;10.60;1.00;;;;;;5032201;28;20288;-54
2023/02/15 02:38:27;;;;;;;74.43;44.33;;;10.50;1.00;;;;;;5032392;28;20048;-57
2023/02/15 02:51:46;;;;;;;81.50;45.97;;;10.50;1.00;;;;;;5020019;28;20033;-55
2023/02/15 02:54:12;;;;;;;69.97;44.00;;;10.40;1.00;;;;;;5012659;28;20399;-55
2023/02/15 02:56:44;;;;;;;67.60;43.03;;;10.40;1.00;;;;;;5027161;28;20033;-56
2023/02/15 02:59:19;;;;;;;68.57;42.70;;;10.30;1.00;;;;;;5032415;28;20029;-55
2023/02/15 03:01:55;;;;;;;66.05;43.03;;;10.30;1.00;;;;;;5031858;28;20367;-53
2023/02/15 03:04:27;;;;;;;69.60;43.80;;;10.30;1.00;;;;;;5021220;28;20028;-54
2023/02/15 03:06:58;;;;;;;69.07;42.97;;;10.40;1.00;;;;;;5031617;28;20047;-50
2023/02/15 03:09:34;;;;;;;65.80;43.83;;;10.40;1.00;;;;;;5030922;28;20052;-55
2023/02/15 03:12:01;;;;;;;69.27;43.17;;;10.40;1.00;;;;;;5031308;28;20087;-52
2023/02/15 03:14:27;;;;;;;68.37;41.80;;;10.40;1.00;;;;;;5032076;28;20079;-55
2023/02/15 03:16:54;;;;;;;66.50;44.87;;;10.30;1.00;;;;;;5031769;28;20041;-51
2023/02/15 03:19:30;;;;;;;65.50;42.93;;;10.30;1.00;;;;;;5030227;28;20021;-54
2023/02/15 03:22:08;;;;;;;70.23;44.97;;;10.30;1.00;;;;;;5032178;28;20124;-53
2023/02/15 03:24:38;;;;;;;69.57;42.93;;;10.30;1.00;;;;;;5025749;28;20028;-51
2023/02/15 03:27:08;;;;;;;65.57;43.27;;;10.30;1.00;;;;;;5030204;28;20360;-54
2023/02/15 03:29:35;;;;;;;67.27;43.03;;;10.30;1.00;;;;;;5031724;28;20052;-52
2023/02/15 03:32:05;;;;;;;67.30;43.70;;;10.30;1.00;;;;;;5031441;28;20013;-53
2023/02/15 03:34:31;;;;;;;64.17;42.47;;;10.30;1.00;;;;;;5030108;28;20041;-52
2023/02/15 03:37:00;;;;;;;67.53;44.97;;;10.30;1.00;;;;;;5031671;28;20101;-51
2023/02/15 03:39:52;;;;;;;66.87;42.33;;;10.30;1.00;;;;;;5029444;28;20154;-58
2023/02/15 03:42:39;;;;;;;68.80;43.83;;;10.20;1.00;;;;;;5019761;28;20117;-54
2023/02/15 03:45:17;;;;;;;70.40;43.57;;;10.20;1.00;;;;;;5031121;28;20039;-51
2023/02/15 03:47:47;;;;;;;67.63;43.37;;;10.10;1.00;;;;;;5017639;28;20030;-53
2023/02/15 03:53:07;;;;;;;63.70;42.17;;;10.20;1.00;;;;;;5031426;28;20088;-54
2023/02/15 03:55:34;;;;;;;64.87;41.27;;;10.20;1.00;;;;;;5030422;28;20029;-56
2023/02/15 04:04:25;;;;;;;61.43;37.93;;;10.10;1.00;;;;;;5018656;28;20033;-55
2023/02/15 04:06:51;;;;;;;58.67;37.70;;;10.00;1.00;;;;;;5023469;28;20064;-54
2023/02/15 04:12:01;;;;;;;55.83;35.13;;;10.00;1.00;;;;;;5031206;28;20044;-53
2023/02/15 04:17:13;;;;;;;58.17;36.33;;;10.00;1.00;;;;;;5028039;28;20087;-54
2023/02/15 04:25:13;;;;;;;59.77;35.43;;;10.00;1.00;;;;;;5030988;28;20415;-54
2023/02/15 04:27:41;;;;;;;56.53;35.33;;;10.00;1.00;;;;;;5031563;28;20022;-54
2023/02/15 04:30:08;;;;;;;54.97;33.60;;;10.00;1.00;;;;;;5031038;28;20364;-52
2023/02/15 04:32:34;;;;;;;55.80;35.97;;;10.00;1.00;;;;;;5029747;28;20059;-55
2023/02/15 04:35:00;;;;;;;59.60;37.00;;;10.00;1.00;;;;;;5030593;28;20033;-54
2023/02/15 04:37:25;;;;;;;57.37;34.60;;;10.00;1.00;;;;;;5030941;28;20044;-54
2023/02/15 04:39:51;;;;;;;52.07;34.57;;;10.00;1.00;;;;;;5029807;28;20049;-56
2023/02/15 04:42:23;;;;;;;55.67;35.73;;;9.90;1.00;;;;;;5030836;28;20036;-54
2023/02/15 04:44:48;;;;;;;57.47;35.20;;;10.00;1.00;;;;;;5029201;28;20022;-52
2023/02/15 04:47:14;;;;;;;57.37;34.13;;;9.90;1.00;;;;;;5031239;28;20435;-54
2023/02/15 04:49:40;;;;;;;57.10;34.07;;;9.90;1.00;;;;;;5032846;28;20084;-54
2023/02/15 04:52:05;;;;;;;56.10;34.33;;;9.90;1.00;;;;;;5034765;28;20053;-54
2023/02/15 04:54:31;;;;;;;53.90;34.43;;;9.90;1.00;;;;;;5032683;28;20542;-54
2023/02/15 04:56:56;;;;;;;51.50;33.20;;;10.00;1.00;;;;;;5034376;28;20112;-52
2023/02/15 04:59:22;;;;;;;53.67;34.13;;;10.00;1.00;;;;;;5034207;28;20352;-51
2023/02/15 05:01:48;;;;;;;60.00;37.40;;;10.00;1.00;;;;;;5034506;28;20029;-55
2023/02/15 05:04:17;;;;;;;59.97;38.70;;;10.00;1.00;;;;;;5034264;28;20033;-54
2023/02/15 05:06:42;;;;;;;60.43;37.30;;;9.90;1.00;;;;;;5034342;28;20072;-53
2023/02/15 05:09:08;;;;;;;60.40;36.53;;;9.90;1.00;;;;;;5032511;28;20029;-53
2023/02/15 05:11:49;;;;;;;56.55;36.28;;;9.90;1.00;;;;;;5105214;27;1246086;-55
2023/02/15 05:14:14;;;;;;;58.17;38.13;;;9.90;1.00;;;;;;5129907;28;20037;-55
2023/02/15 05:16:40;;;;;;;58.07;35.57;;;9.90;1.00;;;;;;5127740;27;20027;-56
2023/02/15 05:19:06;;;;;;;60.00;38.33;;;9.80;1.00;;;;;;5129574;27;20028;-55
2023/02/15 05:21:32;;;;;;;59.13;36.63;;;9.80;1.00;;;;;;5129743;27;20049;-55
2023/02/15 05:23:58;;;;;;;56.20;37.60;;;9.90;1.00;;;;;;5129763;27;20019;-55
2023/02/15 05:29:10;;;;;;;64.20;39.53;;;9.80;1.00;;;;;;5130280;28;20062;-56
2023/02/15 05:31:35;;;;;;;64.23;39.63;;;9.90;1.00;;;;;;5129350;27;20084;-56
2023/02/15 05:34:13;;;;;;;61.47;39.90;;;9.90;1.00;;;;;;5129927;28;20333;-53
2023/02/15 05:36:39;;;;;;;65.50;40.10;;;9.80;1.00;;;;;;5129463;28;20092;-55
2023/02/15 05:39:05;;;;;;;60.50;39.80;;;9.80;1.00;;;;;;5128290;28;20469;-56
2023/02/15 05:41:31;;;;;;;59.93;39.77;;;9.80;1.00;;;;;;5129239;27;20015;-54
2023/02/15 05:43:57;;;;;;;62.20;39.40;;;9.80;1.00;;;;;;5120963;27;20085;-56
2023/02/15 05:46:28;;;;;;;60.70;38.80;;;9.80;1.00;;;;;;5129409;27;20019;-56
2023/02/15 05:48:54;;;;;;;61.20;41.87;;;9.80;1.00;;;;;;5141276;27;20027;-54
2023/02/15 05:51:20;;;;;;;60.57;38.90;;;9.90;1.00;;;;;;5141235;27;20509;-56
2023/02/15 05:53:45;;;;;;;64.30;39.57;;;9.90;1.00;;;;;;5129345;27;20034;-54
2023/02/15 05:56:11;;;;;;;60.67;41.40;;;9.80;1.00;;;;;;5128694;28;20101;-56
2023/02/15 05:58:41;;;;;;;59.20;39.13;;;9.80;1.00;;;;;;5129236;28;20031;-56
2023/02/15 06:01:17;;;;;;;65.57;40.73;;;9.70;1.00;;;;;;5127409;28;20023;-54
2023/02/15 06:03:46;;;;;;;62.53;40.97;;;9.70;1.00;;;;;;5143677;27;20031;-57
2023/02/15 06:06:12;;;;;;;65.90;41.80;;;9.70;1.00;;;;;;5127508;27;20316;-56
2023/02/15 06:08:38;;;;;;;59.10;41.00;;;9.70;1.00;;;;;;5115092;27;20110;-55
2023/02/15 06:11:04;;;;;;;67.10;43.20;;;9.70;1.00;;;;;;5128773;27;20047;-54
2023/02/15 06:13:30;;;;;;;66.57;43.03;;;9.70;1.00;;;;;;5128976;27;20027;-55
2023/02/15 06:15:56;;;;;;;61.40;42.47;;;9.60;1.00;;;;;;5127588;28;20103;-55
2023/02/15 06:18:22;;;;;;;74.03;44.50;;;9.70;1.00;;;;;;5123826;28;20476;-55
2023/02/15 06:20:48;;;;;;;65.10;42.13;;;9.70;1.00;;;;;;5118029;27;20437;-56
2023/02/15 06:23:26;;;;;;;62.53;41.80;;;9.70;1.00;;;;;;5114442;27;20107;-56
2023/02/15 06:26:10;;;;;;;71.80;42.67;;;9.70;1.00;;;;;;5114531;28;20035;-56
2023/02/15 06:28:37;;;;;;;58.80;41.00;;;9.60;1.00;;;;;;5112309;28;20572;-56
2023/02/15 06:31:03;;;;;;;69.17;43.20;;;9.70;1.00;;;;;;5113183;28;20028;-57
2023/02/15 06:33:30;;;;;;;67.90;42.83;;;9.60;1.00;;;;;;5115119;28;20069;-56
2023/02/15 06:35:56;;;;;;;68.20;41.47;;;9.70;1.00;;;;;;5114956;27;20028;-55
2023/02/15 06:38:22;;;;;;;66.27;41.90;;;9.60;1.00;;;;;;5114461;28;20107;-55
2023/02/15 06:40:47;;;;;;;63.00;41.13;;;9.70;1.00;;;;;;5104061;28;20125;-56
2023/02/15 06:43:14;;;;;;;71.73;44.97;;;9.60;1.00;;;;;;5113480;28;20031;-55
2023/02/15 06:45:40;;;;;;;70.20;42.50;;;9.60;1.00;;;;;;5114727;28;20035;-56
2023/02/15 06:48:07;;;;;;;66.27;41.57;;;9.60;1.00;;;;;;5129157;27;20023;-57
2023/02/15 06:50:33;;;;;;;71.33;41.93;;;9.60;1.00;;;;;;5114119;28;20469;-57
2023/02/15 06:53:01;;;;;;;64.73;41.83;;;9.60;1.00;;;;;;5114662;28;20031;-57
2023/02/15 06:55:27;;;;;;;69.43;42.90;;;9.60;1.00;;;;;;5114259;27;20354;-54
2023/02/15 06:57:52;;;;;;;64.83;44.33;;;9.60;1.00;;;;;;5114496;28;20042;-56
2023/02/15 07:00:18;;;;;;;70.90;42.77;;;9.60;1.00;;;;;;5114132;28;20024;-58
2023/02/15 07:02:44;;;;;;;65.33;42.03;;;9.70;1.00;;;;;;5112542;28;20031;-56
2023/02/15 07:05:10;;;;;;;65.30;42.43;;;9.60;1.00;;;;;;5103684;28;20032;-56
2023/02/15 07:07:36;;;;;;;69.63;43.87;;;9.60;1.00;;;;;;5113908;28;20020;-55
2023/02/15 07:10:02;;;;;;;73.73;44.77;;;9.60;1.00;;;;;;5113004;28;20135;-56
2023/02/15 07:12:44;;;;;;;71.13;44.50;;;9.60;1.00;;;;;;5114279;28;20024;-54
2023/02/15 07:15:12;;;;;;;70.50;43.53;;;9.60;1.00;;;;;;5111874;28;20413;-56
2023/02/15 07:17:50;;;;;;;73.80;43.97;;;9.60;1.00;;;;;;5100559;28;20066;-53
2023/02/15 07:20:22;;;;;;;67.93;43.57;;;9.60;1.00;;;;;;5113907;27;20034;-62
2023/02/15 07:22:49;;;;;;;70.13;43.67;;;9.30;1.00;;;;;;5103171;28;20102;-60
2023/02/15 07:25:15;;;;;;;68.17;42.43;;;9.20;1.00;;;;;;5106046;28;20036;-58
2023/02/15 07:27:41;;;;;;;75.17;43.53;;;9.20;1.00;;;;;;5112413;28;20393;-58
2023/02/15 07:30:09;;;;;;;72.67;43.63;;;9.50;1.00;;;;;;5113779;28;20031;-58
2023/02/15 07:32:35;;;;;;;67.20;43.87;;;9.60;1.00;;;;;;5106279;28;20027;-59
2023/02/15 07:35:00;;;;;;;64.47;42.30;;;9.70;1.00;;;;;;5112350;28;20057;-58
2023/02/15 07:37:27;;;;;;;66.20;41.97;;;9.70;1.00;;;;;;5112249;27;20577;-58
2023/02/15 07:39:52;;;;;;;68.20;43.83;;;9.70;1.00;;;;;;5113099;28;20047;-58
2023/02/15 07:42:19;;;;;;;61.47;40.40;;;9.70;1.00;;;;;;5113130;28;20117;-58
2023/02/15 07:44:57;;;;;;;69.23;43.17;;;9.60;1.00;;;;;;5113243;28;20031;-58
2023/02/15 07:47:22;;;;;;;71.93;44.20;;;9.80;1.00;;;;;;5113623;28;20019;-59
2023/02/15 07:49:49;;;;;;;71.13;43.87;;;9.80;1.00;;;;;;5112938;28;20043;-59
2023/02/15 07:52:14;;;;;;;73.83;44.93;;;9.80;1.00;;;;;;5113462;28;20113;-59
2023/02/15 07:54:40;;;;;;;73.40;46.17;;;9.80;1.00;;;;;;5112484;28;20478;-58
2023/02/15 07:57:06;;;;;;;65.67;45.87;;;9.80;1.00;;;;;;5113246;28;20023;-59
2023/02/15 07:59:32;;;;;;;69.10;45.23;;;9.90;1.00;;;;;;5102621;28;20126;-59
2023/02/15 08:01:58;;;;;;;71.20;47.40;;;9.80;1.00;;;;;;5112778;27;20425;-61
2023/02/15 08:04:26;;;;;;;76.27;46.03;;;9.80;1.00;;;;;;5120118;27;20034;-61
2023/02/15 08:06:56;;;;;;;72.33;47.07;;;9.90;1.00;;;;;;5111091;28;20027;-59
2023/02/15 08:09:22;;;;;;;76.07;48.23;;;9.90;1.00;;;;;;5112182;28;20016;-61
2023/02/15 08:11:48;;;;;;;76.93;47.97;;;10.00;1.00;;;;;;5108284;28;20163;-59
2023/02/15 08:14:16;;;;;;;80.13;49.47;;;10.10;1.00;;;;;;5102509;28;20016;-59
2023/02/15 08:16:47;;;;;;;78.83;50.23;;;10.00;1.00;;;;;;5107347;28;20051;-60
2023/02/15 08:19:23;;;;;;;72.73;48.07;;;10.10;1.00;;;;;;5112853;28;20073;-60
2023/02/15 08:21:58;;;;;;;81.30;50.40;;;10.20;1.00;;;;;;5112492;28;20457;-60
2023/02/15 08:24:26;;;;;;;73.35;47.53;;;10.20;1.00;;;;;;5112940;28;20110;-60
2023/02/15 08:26:53;;;;;;;74.40;48.57;;;10.20;1.00;;;;;;5110683;28;20019;-59
2023/02/15 08:29:24;;;;;;;78.90;49.63;;;10.20;1.00;;;;;;5111561;28;20100;-59
2023/02/15 08:31:53;;;;;;;80.53;50.83;;;10.30;1.00;;;;;;5112462;28;20035;-59
2023/02/15 08:34:19;;;;;;;79.77;53.17;;;10.30;1.00;;;;;;5126870;27;20019;-59
2023/02/15 08:36:45;;;;;;;81.70;51.03;;;10.30;1.00;;;;;;5110945;28;20138;-58
2023/02/15 08:39:11;;;;;;;82.27;52.23;;;10.30;1.00;;;;;;5103856;28;20085;-60
2023/02/15 08:41:38;;;;;;;76.23;52.97;;;10.30;1.00;;;;;;5112377;27;20019;-61
2023/02/15 08:44:06;;;;;;;82.70;52.93;;;10.40;1.00;;;;;;5112033;28;20034;-60
2023/02/15 08:46:41;;;;;;;79.83;50.60;;;10.40;1.00;;;;;;5102666;28;20102;-59
2023/02/15 08:49:07;;;;;;;77.43;52.83;;;10.50;1.00;;;;;;5111205;28;20053;-61
2023/02/15 08:51:38;;;;;;;79.63;55.40;;;10.50;1.00;;;;;;5112036;28;20028;-61
2023/02/15 08:54:07;;;;;;;84.60;54.77;;;10.50;1.00;;;;;;5111269;28;20019;-60
2023/02/15 08:56:35;;;;;;;76.70;52.72;;;10.60;1.00;;;;;;5111322;28;20107;-59
2023/02/15 08:59:02;;;;;;;83.23;55.03;;;10.60;1.00;;;;;;5112285;28;20082;-60
2023/02/15 09:01:30;;;;;;;76.10;53.55;;;10.60;1.00;;;;;;5108482;28;20481;-60
2023/02/15 09:03:58;;;;;;;94.45;57.28;;;10.70;1.00;;;;;;5100447;28;20046;-57
2023/02/15 09:06:24;;;;;;;88.97;57.22;;;10.70;1.00;;;;;;5112046;28;20435;-60
2023/02/15 09:08:50;;;;;;;88.67;57.30;;;10.70;1.00;;;;;;5106856;28;20055;-60
2023/02/15 09:11:24;;;;;;;85.93;56.23;;;10.80;1.00;;;;;;5110565;28;20447;-60
2023/02/15 09:14:13;;;;;;;83.68;55.17;;;10.80;1.00;;;;;;5112239;28;20019;-59
2023/02/15 09:16:40;;;;;;;82.93;56.00;;;10.80;1.00;;;;;;5107482;28;20036;-58
2023/02/15 09:19:07;;;;;;;83.82;56.80;;;10.90;1.00;;;;;;5111814;28;20481;-60
2023/02/15 09:21:35;;;;;;;81.78;53.83;;;11.00;1.00;;;;;;5111971;28;20031;-60
2023/02/15 09:24:04;;;;;;;82.32;53.88;;;11.00;1.00;;;;;;5108361;28;20032;-59
2023/02/15 09:26:32;;;;;;;75.75;53.55;;;11.00;1.00;;;;;;5103962;28;20504;-64
2023/02/15 09:29:01;;;;;;;76.70;53.10;;;11.10;1.00;;;;;;5109226;28;20160;-60
2023/02/15 09:31:30;;;;;;;76.00;53.20;;;11.10;1.00;;;;;;5107315;28;20140;-62
2023/02/15 09:33:56;;;;;;;76.95;52.50;;;11.10;1.00;;;;;;5107217;28;20028;-63
2023/02/15 09:36:33;;;;;;;79.63;52.97;;;11.20;1.00;;;;;;5111151;28;20035;-61
2023/02/15 09:39:17;;;;;;;83.25;54.88;;;11.20;1.00;;;;;;5109599;28;20023;-61
2023/02/15 09:41:59;;;;;;;89.47;54.88;;;11.30;1.00;;;;;;5110483;28;20024;-62
2023/02/15 09:44:41;;;;;;;80.72;55.90;;;11.30;1.00;;;;;;5098333;28;20023;-59
2023/02/15 09:47:34;;;;;;;77.45;55.67;;;11.30;1.00;;;;;;5111775;28;20406;-60
2023/02/15 09:50:15;;;;;;;82.60;53.55;;;11.40;1.00;;;;;;5109932;28;20031;-65
2023/02/15 09:53:14;;;;;;;74.53;52.80;;;11.50;1.00;;;;;;5098685;28;20131;-57
2023/02/15 09:56:05;;;;;;;83.43;56.72;;;11.60;1.00;;;;;;5107754;28;20055;-60
2023/02/15 09:59:15;;;;;;;86.20;56.10;;;11.60;1.00;;;;;;5099027;27;20062;-59
2023/02/15 10:01:58;;;;;;;80.95;56.20;;;11.70;1.00;;;;;;5110459;28;20035;-61
2023/02/15 10:04:41;;;;;;;84.15;56.28;;;11.70;1.00;;;;;;5098907;28;20111;-58
2023/02/15 10:07:27;;;;;;;84.70;55.13;;;11.70;1.00;;;;;;5110569;28;20035;-63
2023/02/15 10:10:25;;;;;;;82.82;56.30;;;11.80;1.00;;;;;;5111469;28;20133;-60
2023/02/15 10:13:25;;;;;;;78.90;54.38;;;11.80;1.00;;;;;;5100291;28;20122;-60
2023/02/15 10:15:51;;;;;;;86.68;56.58;;;11.80;1.00;;;;;;5106255;28;20023;-56
2023/02/15 10:18:55;;;;;;;82.50;57.35;;;11.90;1.00;;;;;;5106716;28;20035;-55
2023/02/15 10:21:33;;;;;;;78.82;55.40;;;12.00;1.00;;;;;;5110271;28;20483;-52
2023/02/15 10:24:23;;;;;;;85.15;59.03;;;12.00;1.00;;;;;;5105086;28;20062;-53
2023/02/15 10:26:49;;;;;;;81.30;55.45;;;12.10;1.00;;;;;;5114311;27;20023;-52
2023/02/15 10:29:33;;;;;;;82.90;56.70;;;12.10;1.00;;;;;;5113585;27;20141;-52
2023/02/15 10:32:25;;;;;;;78.68;57.05;;;12.10;1.00;;;;;;5101773;27;20169;-58
2023/02/15 10:34:57;;;;;;;82.65;58.08;;;12.20;1.00;;;;;;5100617;28;20039;-58
2023/02/15 10:37:44;;;;;;;88.30;58.58;;;12.30;1.00;;;;;;5105121;28;20020;-59
2023/02/15 10:40:19;;;;;;;78.68;58.22;;;12.30;1.00;;;;;;5110609;28;20548;-48
2023/02/15 10:42:54;;;;;;;78.03;56.17;;;12.30;1.00;;;;;;5114550;27;20016;-52
2023/02/15 10:45:25;;;;;;;;;;;12.40;1.00;;;;;;5114687;27;20106;-51
2023/02/15 10:48:35;;;;;;;80.00;54.75;;;12.40;1.00;;;;;;5114740;28;19941;-47
2023/02/15 10:51:07;;;;;;;83.20;59.00;;;12.40;1.00;;;;;;5075397;27;20035;-50
2023/02/15 10:53:42;;;;;;;84.60;57.17;;;12.50;1.00;;;;;;5115185;27;20106;-59
2023/02/15 10:56:13;;;;;;;78.60;54.90;;;12.50;1.00;;;;;;5111530;28;20087;-58
2023/02/15 10:58:43;;;;;;;88.15;57.55;;;12.50;1.00;;;;;;5109406;27;20077;-60
2023/02/15 11:01:28;;;;;;;85.25;57.08;;;12.60;1.00;;;;;;5109417;28;20024;-59
2023/02/15 11:04:05;;;;;;;88.78;60.10;;;12.60;1.00;;;;;;5096687;28;20031;-54
2023/02/15 11:06:33;;;;;;;81.18;56.45;;;12.60;1.00;;;;;;5110555;28;20127;-53
2023/02/15 11:09:12;;;;;;;79.97;57.53;;;12.60;1.00;;;;;;5113303;28;20485;-53
2023/02/15 11:11:42;;;;;;;81.63;56.90;;;12.70;1.00;;;;;;5107850;28;20044;-59
2023/02/15 11:14:28;;;;;;;87.75;57.70;;;12.70;1.00;;;;;;5096261;28;20016;-59
2023/02/15 11:17:02;;;;;;;81.57;56.88;;;12.80;1.00;;;;;;5106814;28;20444;-54
2023/02/15 11:19:40;;;;;;;82.45;56.35;;;12.80;1.00;;;;;;5113768;28;20474;-59
2023/02/15 11:22:09;;;;;;;75.90;54.25;;;12.90;1.00;;;;;;5113196;28;20036;-60
2023/02/15 11:24:42;;;;;;;78.13;55.33;;;12.90;1.00;;;;;;5113497;28;20051;-60
2023/02/15 11:27:14;;;;;;;80.63;53.85;;;13.00;1.00;;;;;;5113380;28;20050;-59
2023/02/15 11:30:10;;;;;;;86.35;57.00;;;13.00;1.00;;;;;;5113288;28;20031;-61
2023/02/15 11:32:46;;;;;;;80.22;52.83;;;13.00;1.00;;;;;;5113559;28;20469;-60
2023/02/15 11:35:18;;;;;;;80.75;53.47;;;13.10;1.00;;;;;;5103729;28;20118;-61
2023/02/15 11:37:54;;;;;;;81.80;53.08;;;13.10;1.00;;;;;;5110709;28;20505;-60
2023/02/15 11:40:32;;;;;;;83.68;53.42;;;13.10;1.00;;;;;;5104429;28;20034;-60
2023/02/15 11:43:04;;;;;;;80.15;54.03;;;13.20;1.00;;;;;;5111253;28;20027;-62
2023/02/15 11:45:36;;;;;;;80.28;52.17;;;13.20;1.00;;;;;;5108521;28;20032;-62
2023/02/15 11:48:09;;;;;;;89.45;56.53;;;13.30;1.00;;;;;;5116450;27;20019;-62
2023/02/15 11:50:36;;;;;;;83.50;56.22;;;13.30;1.00;;;;;;5110605;28;20066;-61
2023/02/15 11:53:06;;;;;;;81.80;53.95;;;13.20;1.00;;;;;;5112198;28;20084;-61
2023/02/15 11:55:35;;;;;;;78.35;52.97;;;13.30;1.00;;;;;;5098323;28;20065;-62
2023/02/15 11:58:13;;;;;;;79.85;53.45;;;13.30;1.00;;;;;;5111162;28;20023;-61
2023/02/15 12:00:45;;;;;;;79.10;51.47;;;13.40;1.00;;;;;;5104568;28;20385;-61
2023/02/15 12:03:47;;;;;;;79.88;52.22;;;13.50;1.00;;;;;;5098592;28;20141;-62
2023/02/15 12:06:28;;;;;;;86.65;52.95;;;13.60;1.00;;;;;;5110042;28;20019;-61
2023/02/15 12:09:02;;;;;;;78.90;50.83;;;13.60;1.00;;;;;;5106717;28;20027;-61
2023/02/15 12:11:39;;;;;;;80.47;53.80;;;13.60;1.00;;;;;;5111482;28;20062;-61
2023/02/15 12:14:07;;;;;;;81.50;53.58;;;13.70;1.00;;;;;;5109170;28;20330;-65
2023/02/15 12:16:45;;;;;;;86.82;52.88;;;13.70;1.00;;;;;;5109546;28;20106;-56
2023/02/15 12:20:04;;;;;;;85.55;55.10;;;13.80;1.00;;;;;;5106247;28;20036;-58
2023/02/15 12:22:37;;;;;;;87.82;55.30;;;13.90;1.00;;;;;;5087795;28;20526;-57
2023/02/15 12:25:20;;;;;;;81.07;54.92;;;13.90;1.00;;;;;;5103645;28;20122;-57
2023/02/15 12:27:47;;;;;;;80.63;55.20;;;13.90;1.00;;;;;;5108444;28;20538;-58
2023/02/15 12:30:22;;;;;;;85.40;55.42;;;14.00;1.00;;;;;;5109222;28;20453;-58
2023/02/15 12:32:59;;;;;;;84.03;53.72;;;14.00;1.00;;;;;;5110708;28;20032;-58
2023/02/15 12:35:27;;;;;;;85.13;55.38;;;14.20;1.00;;;;;;5121669;27;20068;-57
2023/02/15 12:38:04;;;;;;;85.78;55.15;;;14.20;1.00;;;;;;5110635;27;20059;-57
2023/02/15 12:40:33;;;;;;;86.75;54.47;;;14.20;1.00;;;;;;5110308;28;20298;-59
2023/02/15 12:42:59;;;;;;;83.72;53.92;;;14.30;1.00;;;;;;5110641;27;20043;-58
2023/02/15 12:45:33;;;;;;;81.50;54.45;;;14.40;1.00;;;;;;5113087;27;20023;-57
2023/02/15 12:48:19;;;;;;;86.38;56.75;;;14.50;1.00;;;;;;5112403;28;20027;-57
2023/02/15 12:50:47;;;;;;;83.13;52.20;;;14.40;1.00;;;;;;5111808;28;20043;-57
2023/02/15 12:53:20;;;;;;;77.43;51.20;;;14.50;1.00;;;;;;5097644;28;20022;-56
2023/02/15 12:55:56;;;;;;;79.88;52.05;;;14.50;1.00;;;;;;5111612;28;20065;-57
2023/02/15 12:58:26;;;;;;;82.38;51.65;;;14.50;1.00;;;;;;5097853;28;20028;-55
2023/02/15 13:01:17;;;;;;;83.70;50.33;;;14.60;1.00;;;;;;5110288;28;20092;-58
2023/02/15 13:03:57;;;;;;;80.55;49.72;;;14.60;1.00;;;;;;5098102;28;20102;-59
2023/02/15 13:06:23;;;;;;;82.72;54.08;;;14.60;1.00;;;;;;5105390;28;20045;-60
2023/02/15 13:08:52;;;;;;;86.75;54.08;;;14.70;1.00;;;;;;5109551;28;20552;-57
2023/02/15 13:11:37;;;;;;;83.25;52.65;;;14.70;1.00;;;;;;5097918;28;20098;-55
2023/02/15 13:14:13;;;;;;;;;;;14.80;1.00;;;;;;5109146;28;20110;-58
2023/02/15 13:16:40;;;;;;;85.95;52.55;;;14.80;1.00;;;;;;5112244;28;19937;-58
2023/02/15 13:19:26;;;;;;;81.80;50.78;;;14.80;1.00;;;;;;5110775;28;20028;-58
2023/02/15 13:21:54;;;;;;;84.32;51.15;;;14.90;1.00;;;;;;5112256;28;20465;-56
2023/02/15 13:24:37;;;;;;;78.25;50.35;;;14.90;1.00;;;;;;5099685;28;20476;-59
2023/02/15 13:27:04;;;;;;;76.95;49.15;;;15.00;1.00;;;;;;5100208;28;20044;-59
2023/02/15 13:29:35;;;;;;;79.10;48.38;;;15.00;1.00;;;;;;5112067;28;20016;-59
2023/02/15 13:32:11;;;;;;;81.35;49.58;;;15.00;1.00;;;;;;5113160;28;20050;-59
2023/02/15 13:34:39;;;;;;;84.97;51.33;;;15.10;1.00;;;;;;5116579;28;20032;-59
2023/02/15 13:37:32;;;;;;;77.93;50.83;;;15.10;1.00;;;;;;5115998;28;20401;-60
2023/02/15 13:40:01;;;;;;;85.25;51.10;;;15.20;1.00;;;;;;5114940;27;20051;-60